createdAt,value
2023-03-23T15:57:54.117Z,9.95
2023-03-23T15:59:28.642Z,8.40
2023-03-23T16:00:53.862Z,13.27
2023-03-23T16:02:26.326Z,9.05
2023-03-23T16:03:59.760Z,5.60
2023-03-23T16:05:21.862Z,5.80
2023-03-23T16:06:44.720Z,7.03
2023-03-23T16:08:10.179Z,7.13
2023-03-23T16:09:34.680Z,5.90
2023-03-23T16:10:57.555Z,5.97
2023-03-23T16:12:20.151Z,6.68
2023-03-23T16:13:42.617Z,8.90
2023-03-23T16:15:05.408Z,7.05
2023-03-23T16:16:31.322Z,9.35
2023-03-23T16:17:55.605Z,8.20
2023-03-23T16:19:23.513Z,8.40
2023-03-23T16:20:45.677Z,6.05
2023-03-23T16:22:06.901Z,4.15
2023-03-23T16:23:31.507Z,5.97
2023-03-23T16:25:09.329Z,10.75
2023-03-23T16:26:34.422Z,9.00
2023-03-23T16:27:58.831Z,5.78
2023-03-23T16:30:58.494Z,8.15
2023-03-23T16:34:08.053Z,6.97
2023-03-23T16:35:54.306Z,8.63
2023-03-23T16:37:19.700Z,6.30
2023-03-23T16:38:49.249Z,12.35
2023-03-23T16:40:15.232Z,7.68
2023-03-23T16:41:38.328Z,9.30
2023-03-23T16:43:09.776Z,7.25
2023-03-23T16:44:32.210Z,10.45
2023-03-23T16:45:58.356Z,10.13
2023-03-23T16:47:23.602Z,6.72
2023-03-23T16:48:46.337Z,8.23
2023-03-23T16:50:11.929Z,8.77
2023-03-23T16:51:39.814Z,7.43
2023-03-23T16:53:07.864Z,10.70
2023-03-23T16:54:30.254Z,10.82
2023-03-23T16:56:02.184Z,12.43
2023-03-23T17:00:29.443Z,9.93
2023-03-23T17:03:58.683Z,12.63
2023-03-23T17:05:27.769Z,12.13
2023-03-23T17:09:43.236Z,12.23
2023-03-23T17:11:07.320Z,10.65
2023-03-23T17:12:33.094Z,11.90
2023-03-23T17:13:55.661Z,9.13
2023-03-23T17:15:19.040Z,9.10
2023-03-23T17:16:46.247Z,10.38
2023-03-23T17:18:09.776Z,8.75
2023-03-23T17:19:32.093Z,7.82
2023-03-23T17:20:59.199Z,8.45
2023-03-23T17:22:22.884Z,7.53
2023-03-23T17:23:46.434Z,10.57
2023-03-23T17:25:10.178Z,7.97
2023-03-23T17:26:32.890Z,8.50
2023-03-23T17:27:58.275Z,7.72
2023-03-23T17:29:56.899Z,9.27
2023-03-23T17:31:19.216Z,7.43
2023-03-23T17:32:41.607Z,6.95
2023-03-23T17:34:04.266Z,9.60
2023-03-23T17:35:26.450Z,8.20
2023-03-23T17:36:57.195Z,7.78
2023-03-23T17:38:20.973Z,6.82
2023-03-23T17:39:44.020Z,8.63
2023-03-23T17:41:08.263Z,7.28
2023-03-23T17:42:31.759Z,7.05
2023-03-23T17:43:54.229Z,7.50
2023-03-23T17:45:16.624Z,7.18
2023-03-23T17:46:39.519Z,7.25
2023-03-23T17:48:01.919Z,6.75
2023-03-23T17:49:24.491Z,8.85
2023-03-23T17:50:53.522Z,7.35
2023-03-23T17:52:19.172Z,8.20
2023-03-23T17:53:48.320Z,8.10
2023-03-23T17:55:19.471Z,8.88
2023-03-23T17:56:41.926Z,10.38
2023-03-23T17:58:04.402Z,9.95
2023-03-23T17:59:29.584Z,7.93
2023-03-23T18:00:57.641Z,10.25
2023-03-23T18:02:20.095Z,10.07
2023-03-23T18:03:45.857Z,8.68
2023-03-23T18:05:09.987Z,12.63
2023-03-23T18:06:35.034Z,9.50
2023-03-23T18:07:57.265Z,10.35
2023-03-23T18:09:21.101Z,9.77
2023-03-23T18:10:46.041Z,7.93
2023-03-23T18:12:09.051Z,13.60
2023-03-23T18:13:34.993Z,8.32
2023-03-23T18:15:00.705Z,8.18
2023-03-23T18:16:28.458Z,7.32
2023-03-23T18:17:58.853Z,11.70
2023-03-23T18:19:21.365Z,7.93
2023-03-23T18:20:44.920Z,9.77
2023-03-23T18:22:12.695Z,9.88
2023-03-23T18:23:39.084Z,8.93
2023-03-23T18:25:09.966Z,8.90
2023-03-23T18:26:42.314Z,9.65
2023-03-23T18:28:08.288Z,12.85
2023-03-23T18:29:31.126Z,9.27
2023-03-23T18:31:10.511Z,9.32
2023-03-23T18:35:08.092Z,8.50
2023-03-23T18:36:30.426Z,9.15
2023-03-23T18:37:55.558Z,9.95
2023-03-23T18:39:18.528Z,7.15
2023-03-23T18:40:46.100Z,11.13
2023-03-23T18:42:10.777Z,11.25
2023-03-23T18:43:33.112Z,9.15
2023-03-23T18:44:56.343Z,5.43
2023-03-23T18:46:18.774Z,8.25
2023-03-23T18:47:43.583Z,10.68
2023-03-23T18:49:05.987Z,14.32
2023-03-23T18:50:28.008Z,12.90
2023-03-23T18:53:11.752Z,10.30
2023-03-23T18:54:35.204Z,9.85
2023-03-23T18:56:07.965Z,11.38
2023-03-23T18:57:30.060Z,12.85
2023-03-23T18:58:53.808Z,10.05
2023-03-23T19:00:17.354Z,11.32
2023-03-23T19:01:39.900Z,9.77
2023-03-23T19:03:02.726Z,9.73
2023-03-23T19:04:35.931Z,10.25
2023-03-23T19:06:04.230Z,10.50
2023-03-23T19:07:26.944Z,13.38
2023-03-23T19:08:58.938Z,13.35
2023-03-23T19:10:22.542Z,10.55
2023-03-23T19:11:47.393Z,13.25
2023-03-23T19:13:10.038Z,14.27
2023-03-23T19:14:58.316Z,10.43
2023-03-23T19:16:23.625Z,12.45
2023-03-23T19:17:46.576Z,13.60
2023-03-23T19:19:09.651Z,10.45
2023-03-23T19:21:06.217Z,13.52
2023-03-23T19:22:15.116Z,12.15
2023-03-23T19:23:46.585Z,10.85
2023-03-23T19:25:45.586Z,13.50
2023-03-23T19:27:11.061Z,12.13
2023-03-23T19:29:15.449Z,12.57
2023-03-23T19:30:18.943Z,12.45
2023-03-23T19:31:46.148Z,13.40
2023-03-23T19:33:08.686Z,12.35
2023-03-23T19:34:31.134Z,11.20
2023-03-23T19:36:06.766Z,17.50
2023-03-23T19:37:34.743Z,11.57
2023-03-23T19:39:10.509Z,15.27
2023-03-23T19:40:40.295Z,15.55
2023-03-23T19:42:08.458Z,14.10
2023-03-23T19:43:32.368Z,10.50
2023-03-23T19:44:54.755Z,15.27
2023-03-23T19:46:17.827Z,15.88
2023-03-23T19:47:43.767Z,12.35
2023-03-23T19:49:08.109Z,16.52
2023-03-23T19:50:31.909Z,15.68
2023-03-23T19:52:08.985Z,12.93
2023-03-23T19:53:39.539Z,12.27
2023-03-23T19:55:05.086Z,12.63
2023-03-23T19:56:30.522Z,12.82
2023-03-23T19:57:53.435Z,11.35
2023-03-23T19:59:19.725Z,15.60
2023-03-23T20:00:44.248Z,10.73
2023-03-23T20:04:09.534Z,11.23
2023-03-23T20:05:38.141Z,13.63
2023-03-23T20:07:07.847Z,11.10
2023-03-23T20:08:33.769Z,13.75
2023-03-23T20:10:00.944Z,14.13
2023-03-23T20:11:31.152Z,10.50
2023-03-23T20:13:17.950Z,13.35
2023-03-23T20:14:52.065Z,10.88
2023-03-23T20:16:20.035Z,11.07
2023-03-23T20:18:08.167Z,12.52
2023-03-23T20:19:40.242Z,10.93
2023-03-23T20:21:22.935Z,14.95
2023-03-23T20:22:48.077Z,11.10
2023-03-23T20:24:11.926Z,11.77
2023-03-23T20:25:40.495Z,16.88
2023-03-23T20:27:04.050Z,10.55
2023-03-23T20:28:26.355Z,13.15
2023-03-23T20:29:54.401Z,10.75
2023-03-23T20:31:24.167Z,12.77
2023-03-23T20:33:02.368Z,11.25
2023-03-23T20:34:32.673Z,12.02
2023-03-23T20:36:04.086Z,12.80
2023-03-23T20:37:26.228Z,11.27
2023-03-23T20:38:53.522Z,12.00
2023-03-23T20:40:15.909Z,13.90
2023-03-23T20:41:47.746Z,11.68
2023-03-23T20:44:40.418Z,13.43
2023-03-23T20:46:04.964Z,10.43
2023-03-23T20:47:28.301Z,12.13
2023-03-23T20:48:52.731Z,13.90
2023-03-23T20:50:17.371Z,11.00
2023-03-23T20:51:45.573Z,11.65
2023-03-23T20:53:17.492Z,14.27
2023-03-23T20:55:14.273Z,12.90
2023-03-23T20:56:42.344Z,13.02
2023-03-23T20:58:05.420Z,13.93
2023-03-23T20:59:29.069Z,13.75
2023-03-23T21:00:57.436Z,18.08
2023-03-23T21:02:27.420Z,10.65
2023-03-23T21:03:57.161Z,16.13
2023-03-23T21:05:26.432Z,13.35
2023-03-23T21:06:54.743Z,10.10
2023-03-23T21:08:18.417Z,11.30
2023-03-23T21:09:44.582Z,12.82
2023-03-23T21:11:09.359Z,9.98
2023-03-23T21:12:33.947Z,12.52
2023-03-23T21:13:58.531Z,12.55
2023-03-23T21:15:23.787Z,12.45
2023-03-23T21:16:46.896Z,13.70
2023-03-23T21:18:11.611Z,12.55
2023-03-23T21:19:33.926Z,14.80
2023-03-23T21:20:59.391Z,13.35
2023-03-23T21:22:22.548Z,11.52
2023-03-23T21:23:46.994Z,13.60
2023-03-23T21:25:16.806Z,12.43
2023-03-23T21:26:56.969Z,14.43
2023-03-23T21:28:21.235Z,12.82
2023-03-23T21:29:43.385Z,12.55
2023-03-23T21:31:07.671Z,14.50
2023-03-23T21:32:32.279Z,14.15
2023-03-23T21:33:59.310Z,13.75
2023-03-23T21:35:28.036Z,13.88
2023-03-23T21:36:50.593Z,13.65
2023-03-23T21:38:14.514Z,13.02
2023-03-23T21:39:38.410Z,16.35
2023-03-23T21:41:01.034Z,16.27
2023-03-23T21:42:30.479Z,15.02
2023-03-23T21:44:10.199Z,16.80
2023-03-23T21:45:40.380Z,13.07
2023-03-23T21:47:38.152Z,16.52
2023-03-23T21:49:16.574Z,17.75
2023-03-23T21:50:42.459Z,14.38
2023-03-23T21:52:10.897Z,16.63
2023-03-23T21:54:21.680Z,16.30
2023-03-23T21:55:48.181Z,19.00
2023-03-23T21:57:12.831Z,18.20
2023-03-23T21:58:35.687Z,19.92
2023-03-23T21:59:58.040Z,18.30
2023-03-23T22:01:27.136Z,16.08
2023-03-23T22:02:51.502Z,14.82
2023-03-23T22:04:22.757Z,16.17
2023-03-23T22:05:44.838Z,16.20
2023-03-23T22:07:11.985Z,16.15
2023-03-23T22:08:35.966Z,18.08
2023-03-23T22:10:07.072Z,15.52
2023-03-23T22:11:35.368Z,19.30
2023-03-23T22:13:03.266Z,17.05
2023-03-23T22:14:25.801Z,13.32
2023-03-23T22:15:47.694Z,18.52
2023-03-23T22:17:18.604Z,14.95
2023-03-23T22:18:43.242Z,13.52
2023-03-23T22:20:13.666Z,15.00
2023-03-23T22:21:38.801Z,15.07
2023-03-23T22:23:20.930Z,18.83
2023-03-23T22:24:43.030Z,13.77
2023-03-23T22:27:41.377Z,19.30
2023-03-23T22:29:11.366Z,19.02
2023-03-23T22:30:33.446Z,19.15
2023-03-23T22:31:56.689Z,15.65
2023-03-23T22:33:20.480Z,16.35
2023-03-23T22:34:52.236Z,15.15
2023-03-23T22:36:19.167Z,16.65
2023-03-23T22:37:53.705Z,18.75
2023-03-23T22:39:16.068Z,16.30
2023-03-23T22:40:43.638Z,14.63
2023-03-23T22:42:13.789Z,14.50
2023-03-23T22:44:27.944Z,12.82
2023-03-23T22:45:56.040Z,13.93
2023-03-23T22:47:18.956Z,11.35
2023-03-23T22:48:43.260Z,12.63
2023-03-23T22:50:16.084Z,12.57
2023-03-23T22:51:47.356Z,13.05
2023-03-23T22:53:10.388Z,13.95
2023-03-23T22:54:32.756Z,10.68
2023-03-23T22:55:59.535Z,13.00
2023-03-23T22:57:24.539Z,12.68
2023-03-23T22:58:49.527Z,13.30
2023-03-23T23:00:15.874Z,14.30
2023-03-23T23:01:58.092Z,11.30
2023-03-23T23:03:37.318Z,10.90
2023-03-23T23:05:00.947Z,13.77
2023-03-23T23:06:24.991Z,14.77
2023-03-23T23:07:52.445Z,13.85
2023-03-23T23:09:17.806Z,11.85
2023-03-23T23:10:42.386Z,12.75
2023-03-23T23:12:08.079Z,11.68
2023-03-23T23:13:32.679Z,15.65
2023-03-23T23:14:55.521Z,12.98
2023-03-23T23:16:25.297Z,14.70
2023-03-23T23:17:47.898Z,16.40
2023-03-23T23:19:12.393Z,13.88
2023-03-23T23:20:37.826Z,11.60
2023-03-23T23:22:16.186Z,10.50
2023-03-23T23:23:42.629Z,11.75
2023-03-23T23:25:04.906Z,14.00
2023-03-23T23:26:27.614Z,9.82
2023-03-23T23:27:59.818Z,12.70
2023-03-23T23:31:41.605Z,12.45
2023-03-23T23:33:26.366Z,10.35
2023-03-23T23:37:38.455Z,9.45
2023-03-23T23:39:17.255Z,9.35
2023-03-23T23:40:41.484Z,9.48
2023-03-23T23:42:21.425Z,9.73
2023-03-23T23:43:43.808Z,11.25
2023-03-23T23:45:08.222Z,11.23
2023-03-23T23:46:34.747Z,10.27
2023-03-23T23:47:58.136Z,10.20
2023-03-23T23:49:26.250Z,9.50
2023-03-23T23:50:51.108Z,8.77
2023-03-23T23:52:12.224Z,13.38
2023-03-23T23:53:39.254Z,7.55
2023-03-23T23:55:15.931Z,8.25
2023-03-23T23:57:02.388Z,8.50
2023-03-23T23:58:32.425Z,8.60
